createdAt,value
2022-12-20T00:00:21.378Z,80.78
2022-12-20T00:01:53.297Z,80.22
2022-12-20T00:03:26.077Z,83.63
2022-12-20T00:05:00.223Z,85.35
2022-12-20T00:06:33.300Z,87.07
2022-12-20T00:08:06.610Z,84.18
2022-12-20T00:09:39.383Z,88.43
2022-12-20T00:11:11.508Z,84.55
2022-12-20T00:12:44.230Z,84.65
2022-12-20T00:14:16.955Z,84.45
2022-12-20T00:15:49.670Z,84.32
2022-12-20T00:17:22.983Z,85.50
2022-12-20T00:18:56.869Z,80.82
2022-12-20T00:20:31.221Z,81.75
2022-12-20T00:22:04.087Z,81.43
2022-12-20T00:23:38.242Z,77.57
2022-12-20T00:25:11.185Z,78.45
2022-12-20T00:26:43.884Z,75.93
2022-12-20T00:28:15.680Z,76.68
2022-12-20T00:29:48.399Z,77.20
2022-12-20T00:31:23.176Z,77.43
2022-12-20T00:32:55.988Z,72.68
2022-12-20T00:34:28.753Z,78.50
2022-12-20T00:36:01.972Z,80.07
2022-12-20T00:37:34.997Z,79.50
2022-12-20T00:39:07.734Z,81.75
2022-12-20T00:40:40.547Z,78.68
2022-12-20T00:42:13.293Z,77.07
2022-12-20T00:43:45.106Z,73.70
2022-12-20T00:45:17.961Z,72.82
2022-12-20T00:46:50.761Z,67.78
2022-12-20T00:48:24.030Z,73.20
2022-12-20T00:49:56.753Z,65.90
2022-12-20T00:51:32.916Z,69.20
2022-12-20T00:53:05.678Z,73.60
2022-12-20T00:54:38.505Z,70.80
2022-12-20T00:56:11.706Z,70.90
2022-12-20T00:57:44.462Z,78.57
2022-12-20T00:59:17.173Z,78.55
2022-12-20T01:00:55.776Z,81.43
2022-12-20T01:02:29.295Z,84.20
2022-12-20T01:04:02.726Z,73.90
2022-12-20T01:05:35.643Z,80.32
2022-12-20T01:07:10.888Z,77.93
2022-12-20T01:08:44.242Z,82.93
2022-12-20T01:10:18.151Z,81.43
2022-12-20T01:11:50.865Z,78.47
2022-12-20T01:13:22.605Z,80.60
2022-12-20T01:14:55.352Z,73.97
2022-12-20T01:16:32.293Z,81.75
2022-12-20T01:18:04.249Z,75.95
2022-12-20T01:19:36.955Z,75.55
2022-12-20T01:21:11.374Z,81.07
2022-12-20T01:22:47.645Z,79.20
2022-12-20T01:24:21.572Z,76.82
2022-12-20T01:25:53.335Z,75.03
2022-12-20T01:27:26.081Z,73.93
2022-12-20T01:29:00.250Z,71.93
2022-12-20T01:30:33.073Z,75.93
2022-12-20T01:32:06.090Z,75.40
2022-12-20T01:33:38.010Z,78.47
2022-12-20T01:35:10.943Z,73.88
2022-12-20T01:36:43.794Z,74.22
2022-12-20T01:38:16.882Z,75.35
2022-12-20T01:39:49.640Z,73.57
2022-12-20T01:41:22.985Z,76.07
2022-12-20T01:42:55.713Z,80.35
2022-12-20T01:44:58.249Z,77.53
2022-12-20T01:46:32.821Z,72.15
2022-12-20T01:48:06.235Z,73.50
2022-12-20T01:49:43.134Z,76.80
2022-12-20T01:51:16.180Z,79.38
2022-12-20T01:52:49.326Z,75.82
2022-12-20T01:54:26.985Z,73.70
2022-12-20T01:56:04.763Z,74.60
2022-12-20T01:57:43.305Z,75.25
2022-12-20T01:59:16.204Z,79.45
2022-12-20T02:00:49.503Z,80.03
2022-12-20T02:02:21.502Z,77.78
2022-12-20T02:03:56.222Z,75.30
2022-12-20T02:05:29.092Z,79.18
2022-12-20T02:07:03.608Z,72.93
2022-12-20T02:08:36.374Z,73.13
2022-12-20T02:10:12.704Z,73.95
2022-12-20T02:12:04.031Z,73.25
2022-12-20T02:13:44.064Z,74.53
2022-12-20T02:15:38.621Z,73.85
2022-12-20T02:17:19.428Z,77.78
2022-12-20T02:18:57.957Z,73.93
2022-12-20T02:20:49.177Z,75.35
2022-12-20T02:22:30.488Z,70.15
2022-12-20T02:24:43.489Z,80.55
2022-12-20T02:26:40.029Z,77.53
2022-12-20T02:28:30.955Z,75.93
2022-12-20T02:30:20.787Z,77.25
2022-12-20T02:32:00.363Z,73.03
2022-12-20T02:33:33.241Z,75.53
2022-12-20T02:35:08.482Z,79.30
2022-12-20T02:36:41.368Z,82.07
2022-12-20T02:38:29.984Z,82.03
2022-12-20T02:40:05.322Z,75.43
2022-12-20T02:41:40.120Z,73.57
2022-12-20T02:43:27.610Z,76.75
2022-12-20T02:45:16.140Z,69.93
2022-12-20T02:46:50.528Z,80.28
2022-12-20T02:48:24.748Z,69.07
2022-12-20T02:49:58.292Z,77.07
2022-12-20T02:51:33.079Z,80.35
2022-12-20T02:53:07.616Z,77.35
2022-12-20T02:54:39.571Z,73.10
2022-12-20T02:56:16.949Z,73.50
2022-12-20T02:58:00.308Z,71.47
2022-12-20T02:59:39.464Z,73.93
2022-12-20T03:01:17.372Z,79.97
2022-12-20T03:03:10.499Z,77.40
2022-12-20T03:04:44.512Z,79.90
2022-12-20T03:06:17.498Z,77.03
2022-12-20T03:07:49.348Z,74.50
2022-12-20T03:09:22.092Z,80.82
2022-12-20T03:10:55.838Z,77.32
2022-12-20T03:12:28.567Z,78.43
2022-12-20T03:14:01.299Z,77.53
2022-12-20T03:15:34.061Z,80.35
2022-12-20T03:17:07.617Z,88.05
2022-12-20T03:18:41.776Z,88.38
2022-12-20T03:20:14.605Z,85.30
2022-12-20T03:21:47.671Z,85.68
2022-12-20T03:23:21.939Z,76.35
2022-12-20T03:24:53.709Z,77.05
2022-12-20T03:26:26.446Z,79.53
2022-12-20T03:27:59.241Z,85.18
2022-12-20T03:29:32.024Z,76.07
2022-12-20T03:31:03.866Z,78.13
2022-12-20T03:32:36.659Z,76.55
2022-12-20T03:34:10.754Z,79.32
2022-12-20T03:35:43.567Z,78.85
2022-12-20T03:37:16.285Z,75.32
2022-12-20T03:38:49.011Z,77.38
2022-12-20T03:40:21.766Z,79.60
2022-12-20T03:41:54.495Z,74.82
2022-12-20T03:43:27.242Z,75.88
2022-12-20T03:44:59.986Z,69.55
2022-12-20T03:46:32.829Z,73.80
2022-12-20T03:48:05.662Z,74.97
2022-12-20T03:49:39.724Z,72.05
2022-12-20T03:51:12.572Z,67.85
2022-12-20T03:52:44.376Z,72.40
2022-12-20T03:54:17.143Z,63.33
2022-12-20T03:55:49.844Z,69.78
2022-12-20T03:57:22.601Z,64.15
2022-12-20T03:58:54.354Z,72.35
2022-12-20T04:00:27.257Z,76.78
2022-12-20T04:01:59.139Z,80.88
2022-12-20T04:03:32.026Z,76.22
2022-12-20T04:05:07.388Z,73.20
2022-12-20T04:06:40.125Z,74.75
2022-12-20T04:08:12.836Z,74.35
2022-12-20T04:09:45.578Z,77.32
2022-12-20T04:11:17.374Z,74.35
2022-12-20T04:12:50.111Z,73.05
2022-12-20T04:14:22.838Z,70.97
2022-12-20T04:16:00.274Z,81.35
2022-12-20T04:17:33.838Z,73.00
2022-12-20T04:19:06.884Z,83.22
2022-12-20T04:20:40.051Z,80.05
2022-12-20T04:22:12.778Z,80.78
2022-12-20T04:23:44.538Z,75.68
2022-12-20T04:25:19.677Z,78.72
2022-12-20T04:26:52.441Z,72.43
2022-12-20T04:28:25.174Z,70.40
2022-12-20T04:29:57.919Z,74.15
2022-12-20T04:31:30.715Z,65.60
2022-12-20T04:33:04.266Z,68.30
2022-12-20T04:34:36.998Z,71.90
2022-12-20T04:36:10.386Z,70.65
2022-12-20T04:37:43.226Z,63.92
2022-12-20T04:39:16.025Z,61.38
2022-12-20T04:40:49.756Z,68.07
2022-12-20T04:42:22.539Z,58.35
2022-12-20T04:43:56.941Z,60.65
2022-12-20T04:45:29.710Z,59.03
2022-12-20T04:47:02.474Z,60.03
2022-12-20T04:48:56.492Z,73.55
2022-12-20T04:50:28.401Z,69.20
2022-12-20T04:52:22.594Z,65.72
2022-12-20T04:53:55.180Z,64.43
2022-12-20T04:55:26.972Z,65.07
2022-12-20T04:56:59.726Z,66.50
2022-12-20T04:58:31.809Z,64.57
2022-12-20T05:00:05.446Z,70.40
2022-12-20T05:01:38.288Z,69.78
2022-12-20T05:03:10.262Z,64.40
2022-12-20T05:04:43.204Z,69.22
2022-12-20T05:06:16.600Z,71.00
2022-12-20T05:07:51.243Z,69.13
2022-12-20T05:09:24.055Z,75.28
2022-12-20T05:10:56.809Z,74.95
2022-12-20T05:12:29.555Z,71.82
2022-12-20T05:14:02.307Z,70.95
2022-12-20T05:15:34.666Z,71.93
2022-12-20T05:17:07.447Z,72.70
2022-12-20T05:18:46.480Z,71.30
2022-12-20T05:20:20.064Z,69.20
2022-12-20T05:22:10.429Z,77.82
2022-12-20T05:24:02.175Z,68.57
2022-12-20T05:25:52.566Z,76.13
2022-12-20T05:27:25.351Z,73.18
2022-12-20T05:28:58.214Z,74.85
2022-12-20T05:30:29.977Z,75.30
2022-12-20T05:32:02.708Z,77.00
2022-12-20T05:33:35.624Z,81.95
2022-12-20T05:35:09.088Z,78.65
2022-12-20T05:36:41.845Z,89.78
2022-12-20T05:38:13.644Z,78.68
2022-12-20T05:39:47.715Z,81.20
2022-12-20T05:41:20.002Z,74.93
2022-12-20T05:42:52.754Z,78.97
2022-12-20T05:44:26.020Z,77.20
2022-12-20T05:45:58.817Z,79.10
2022-12-20T05:47:33.724Z,74.93
2022-12-20T05:49:06.430Z,75.60
2022-12-20T05:50:39.152Z,71.35
2022-12-20T05:52:11.865Z,73.50
2022-12-20T05:53:44.671Z,77.63
2022-12-20T05:55:17.999Z,74.55
2022-12-20T05:56:50.776Z,73.82
2022-12-20T05:58:23.481Z,69.82
2022-12-20T05:59:56.201Z,65.60
2022-12-20T06:01:28.966Z,60.90
2022-12-20T06:03:01.948Z,58.28
2022-12-20T06:04:35.193Z,56.83
2022-12-20T06:06:13.925Z,55.97
2022-12-20T06:07:47.860Z,56.88
2022-12-20T06:09:20.775Z,62.38
2022-12-20T06:10:55.140Z,69.25
2022-12-20T06:12:27.888Z,81.47
2022-12-20T06:14:00.625Z,82.18
2022-12-20T06:15:33.374Z,84.45
2022-12-20T06:17:06.150Z,94.32
2022-12-20T06:18:38.861Z,87.57
2022-12-20T06:20:13.160Z,85.28
2022-12-20T06:21:45.964Z,85.60
2022-12-20T06:23:18.829Z,80.65
2022-12-20T06:24:51.598Z,78.03
2022-12-20T06:26:25.676Z,84.85
2022-12-20T06:27:58.817Z,81.85
2022-12-20T06:29:31.590Z,81.57
2022-12-20T06:31:04.369Z,91.35
2022-12-20T06:32:37.143Z,78.03
2022-12-20T06:34:09.885Z,79.85
2022-12-20T06:35:42.607Z,80.10
2022-12-20T06:37:15.352Z,78.82
2022-12-20T06:38:48.137Z,77.30
2022-12-20T06:40:21.036Z,81.38
2022-12-20T06:41:55.112Z,81.72
2022-12-20T06:43:27.857Z,83.55
2022-12-20T06:45:00.591Z,76.57
2022-12-20T06:46:33.514Z,80.18
2022-12-20T06:48:06.564Z,78.40
2022-12-20T06:49:39.278Z,78.20
2022-12-20T06:51:12.438Z,77.07
2022-12-20T06:52:45.197Z,80.47
2022-12-20T06:54:17.907Z,71.45
2022-12-20T06:55:51.168Z,69.82
2022-12-20T06:57:25.274Z,76.55
2022-12-20T06:58:57.977Z,71.93
2022-12-20T07:00:30.831Z,80.85
2022-12-20T07:02:04.418Z,74.75
2022-12-20T07:03:38.214Z,69.78
2022-12-20T07:05:11.095Z,73.28
2022-12-20T07:06:43.819Z,72.40
2022-12-20T07:08:16.547Z,76.75
2022-12-20T07:09:49.308Z,66.18
2022-12-20T07:11:22.075Z,69.45
2022-12-20T07:12:56.133Z,72.53
2022-12-20T07:14:29.125Z,67.45
2022-12-20T07:16:03.322Z,66.68
2022-12-20T07:17:36.204Z,70.07
2022-12-20T07:19:11.807Z,66.70
2022-12-20T07:20:44.604Z,65.63
2022-12-20T07:22:17.340Z,68.78
2022-12-20T07:23:50.126Z,65.80
2022-12-20T07:25:22.904Z,73.93
2022-12-20T07:26:55.868Z,69.47
2022-12-20T07:28:30.060Z,70.55
2022-12-20T07:30:02.920Z,74.70
2022-12-20T07:31:35.775Z,71.07
2022-12-20T07:33:08.527Z,70.65
2022-12-20T07:34:41.477Z,71.82
2022-12-20T07:36:15.835Z,78.03
2022-12-20T07:37:48.567Z,76.97
2022-12-20T07:39:21.277Z,71.78
2022-12-20T07:40:53.984Z,74.03
2022-12-20T07:42:33.582Z,73.28
2022-12-20T07:44:10.418Z,85.45
2022-12-20T07:45:43.174Z,82.18
2022-12-20T07:47:16.419Z,88.45
2022-12-20T07:48:49.139Z,75.30
2022-12-20T07:50:21.949Z,84.22
2022-12-20T07:51:58.052Z,82.35
2022-12-20T07:53:32.450Z,86.60
2022-12-20T07:55:07.947Z,83.80
2022-12-20T07:56:45.992Z,82.70
2022-12-20T07:58:19.882Z,85.60
2022-12-20T07:59:58.087Z,76.63
2022-12-20T08:01:32.259Z,86.15
2022-12-20T08:03:13.312Z,77.93
2022-12-20T08:04:46.556Z,80.75
2022-12-20T08:06:20.222Z,79.30
2022-12-20T08:07:59.269Z,83.35
2022-12-20T08:09:37.278Z,85.38
2022-12-20T08:11:11.239Z,83.15
2022-12-20T08:12:46.066Z,82.40
2022-12-20T08:14:20.367Z,81.97
2022-12-20T08:15:54.476Z,79.90
2022-12-20T08:17:27.208Z,73.68
2022-12-20T08:18:59.930Z,75.78
2022-12-20T08:20:32.790Z,72.57
2022-12-20T08:22:06.160Z,70.28
2022-12-20T08:23:38.921Z,77.13
2022-12-20T08:25:12.434Z,78.70
2022-12-20T08:26:45.163Z,71.60
2022-12-20T08:28:17.904Z,70.13
2022-12-20T08:29:50.740Z,65.13
2022-12-20T08:31:24.979Z,69.07
2022-12-20T08:32:57.866Z,64.88
2022-12-20T08:34:31.131Z,62.63
2022-12-20T08:36:06.832Z,73.50
2022-12-20T08:37:39.569Z,73.38
2022-12-20T08:39:12.347Z,86.15
2022-12-20T08:40:45.375Z,82.90
2022-12-20T08:42:18.115Z,107.00
2022-12-20T08:43:50.878Z,91.78
2022-12-20T08:45:23.627Z,86.78
2022-12-20T08:46:57.805Z,81.45
2022-12-20T08:48:31.530Z,84.78
2022-12-20T08:50:04.460Z,80.82
2022-12-20T08:51:37.500Z,84.35
2022-12-20T08:53:10.275Z,87.50
2022-12-20T08:54:43.026Z,86.68
2022-12-20T08:56:18.136Z,85.22
2022-12-20T08:57:50.875Z,87.65
2022-12-20T08:59:23.645Z,83.07
2022-12-20T09:01:04.559Z,84.28
2022-12-20T09:02:41.270Z,88.22
2022-12-20T09:04:15.277Z,87.63
2022-12-20T09:05:48.749Z,87.35
2022-12-20T09:07:21.484Z,91.75
2022-12-20T09:08:55.537Z,92.47
2022-12-20T09:10:28.268Z,97.43
2022-12-20T09:12:01.300Z,97.63
2022-12-20T09:13:37.988Z,99.65
2022-12-20T09:15:16.103Z,90.25
2022-12-20T09:16:49.112Z,82.35
2022-12-20T09:18:23.161Z,79.07
2022-12-20T09:19:55.945Z,82.75
2022-12-20T09:21:29.385Z,73.07
2022-12-20T09:23:02.115Z,78.03
2022-12-20T09:24:34.830Z,71.75
2022-12-20T09:26:09.661Z,72.78
2022-12-20T09:27:42.380Z,67.35
2022-12-20T09:29:19.444Z,66.18
2022-12-20T09:30:59.415Z,58.50
2022-12-20T09:32:32.140Z,69.72
2022-12-20T09:34:06.495Z,61.42
2022-12-20T09:35:45.926Z,59.72
2022-12-20T09:37:18.612Z,59.80
2022-12-20T09:38:52.043Z,55.33
2022-12-20T09:40:27.681Z,57.33
2022-12-20T09:42:01.005Z,57.83
2022-12-20T09:43:34.800Z,56.65
2022-12-20T09:45:10.610Z,56.13
2022-12-20T09:46:44.678Z,53.15
2022-12-20T09:48:20.764Z,61.40
2022-12-20T09:49:56.874Z,62.78
2022-12-20T09:51:44.447Z,83.07
2022-12-20T09:53:33.095Z,77.30
2022-12-20T09:55:17.344Z,74.90
2022-12-20T09:56:58.928Z,71.18
2022-12-20T09:58:58.673Z,70.80
2022-12-20T10:00:37.394Z,75.28
2022-12-20T10:02:35.552Z,75.45
2022-12-20T10:04:07.643Z,67.88
2022-12-20T10:05:51.056Z,61.38
2022-12-20T10:07:38.957Z,71.30
2022-12-20T10:09:31.124Z,72.15
2022-12-20T10:11:11.263Z,69.28
2022-12-20T10:12:51.016Z,68.50
2022-12-20T10:14:37.157Z,69.93
2022-12-20T10:16:22.993Z,69.82
2022-12-20T10:18:12.364Z,78.68
2022-12-20T10:20:01.688Z,79.75
2022-12-20T10:21:42.710Z,83.32
2022-12-20T10:23:27.911Z,90.85
2022-12-20T10:25:16.733Z,84.05
2022-12-20T10:26:51.346Z,84.15
2022-12-20T10:28:28.633Z,79.50
2022-12-20T10:30:01.329Z,86.88
2022-12-20T10:31:35.836Z,89.82
2022-12-20T10:33:17.787Z,87.47
2022-12-20T10:34:56.434Z,85.55
2022-12-20T10:36:30.820Z,82.93
2022-12-20T10:38:08.708Z,85.55
2022-12-20T10:39:43.655Z,84.85
2022-12-20T10:41:22.210Z,91.25
2022-12-20T10:42:56.533Z,94.57
2022-12-20T10:44:32.744Z,97.00
2022-12-20T10:46:08.344Z,94.75
2022-12-20T10:47:44.069Z,104.82
2022-12-20T10:49:27.776Z,96.40
2022-12-20T10:51:03.328Z,88.15
2022-12-20T10:52:36.060Z,87.00
2022-12-20T10:54:24.483Z,96.43
2022-12-20T10:56:14.605Z,87.95
2022-12-20T10:57:47.408Z,91.28
2022-12-20T10:59:31.386Z,80.78
2022-12-20T11:01:14.721Z,90.22
2022-12-20T11:03:04.490Z,84.22
2022-12-20T11:04:40.347Z,85.90
2022-12-20T11:06:18.249Z,89.75
2022-12-20T11:09:57.244Z,83.88
2022-12-20T11:11:30.068Z,84.60
2022-12-20T11:13:04.266Z,85.05
2022-12-20T11:14:39.749Z,84.03
2022-12-20T11:16:30.859Z,85.20
2022-12-20T11:18:09.607Z,83.47
2022-12-20T11:19:59.860Z,87.40
2022-12-20T11:21:40.916Z,83.70
2022-12-20T11:23:23.118Z,95.82
2022-12-20T11:25:06.989Z,86.72
2022-12-20T11:27:03.126Z,84.80
2022-12-20T11:28:52.600Z,86.18
2022-12-20T11:30:29.989Z,83.55
2022-12-20T11:32:10.069Z,90.47
2022-12-20T11:33:53.591Z,80.13
2022-12-20T11:35:33.511Z,88.60
2022-12-20T11:37:19.467Z,90.93
2022-12-20T11:38:59.789Z,82.07
2022-12-20T11:40:38.844Z,81.05
2022-12-20T11:42:23.057Z,77.82
2022-12-20T11:46:16.527Z,72.05
2022-12-20T11:48:21.730Z,78.13
2022-12-20T11:50:12.956Z,81.70
2022-12-20T11:51:48.200Z,75.05
2022-12-20T11:53:27.311Z,79.25
2022-12-20T11:55:08.758Z,72.40
2022-12-20T11:56:45.356Z,67.30
2022-12-20T11:58:22.766Z,74.20
2022-12-20T11:59:59.617Z,71.35
2022-12-20T12:01:36.859Z,72.18
2022-12-20T12:03:15.171Z,72.22
2022-12-20T12:04:52.212Z,74.22
2022-12-20T12:06:29.758Z,75.35
2022-12-20T12:08:10.962Z,72.05
2022-12-20T12:09:56.408Z,71.18
2022-12-20T12:12:05.020Z,71.65
2022-12-20T12:13:29.397Z,74.07
2022-12-20T12:15:12.742Z,68.25
2022-12-20T12:16:53.347Z,72.85
2022-12-20T12:18:29.946Z,76.65
2022-12-20T12:20:19.834Z,69.88
2022-12-20T12:21:58.954Z,69.90
2022-12-20T12:23:37.932Z,70.78
2022-12-20T12:25:16.401Z,68.75
2022-12-20T12:26:49.135Z,67.25
2022-12-20T12:28:23.319Z,67.75
2022-12-20T12:29:59.551Z,69.25
2022-12-20T12:31:39.840Z,71.65
2022-12-20T12:33:23.974Z,65.25
2022-12-20T12:35:11.846Z,71.75
2022-12-20T12:37:15.102Z,67.53
2022-12-20T12:39:15.939Z,67.85
2022-12-20T12:41:10.950Z,73.88
2022-12-20T12:43:17.113Z,68.65
2022-12-20T12:44:53.716Z,69.53
2022-12-20T12:46:30.785Z,71.63
2022-12-20T12:48:08.960Z,68.63
2022-12-20T12:49:42.469Z,74.03
2022-12-20T12:51:16.852Z,69.65
2022-12-20T12:52:51.663Z,68.35
2022-12-20T12:54:27.199Z,73.15
2022-12-20T12:56:19.328Z,71.90
2022-12-20T12:57:57.203Z,70.70
2022-12-20T12:59:51.786Z,73.93
2022-12-20T13:01:53.703Z,65.00
2022-12-20T13:03:47.485Z,67.50
2022-12-20T13:05:36.938Z,67.13
2022-12-20T13:07:26.600Z,71.75
2022-12-20T13:09:20.707Z,74.45
2022-12-20T13:11:01.503Z,70.18
2022-12-20T13:12:57.236Z,73.13
2022-12-20T13:14:54.213Z,69.60
2022-12-20T13:17:09.500Z,67.65
2022-12-20T13:18:26.876Z,65.07
2022-12-20T13:19:59.929Z,70.45
2022-12-20T13:21:37.482Z,63.22
2022-12-20T13:23:17.191Z,60.50
2022-12-20T13:24:56.102Z,59.33
2022-12-20T13:26:52.406Z,58.78
2022-12-20T13:28:47.068Z,57.00
2022-12-20T13:30:28.248Z,60.00
2022-12-20T13:32:01.213Z,57.10
2022-12-20T13:33:43.922Z,60.25
2022-12-20T13:35:31.287Z,55.53
2022-12-20T13:37:04.010Z,56.47
2022-12-20T13:38:53.605Z,53.83
2022-12-20T13:40:35.530Z,51.30
2022-12-20T13:42:31.610Z,49.72
2022-12-20T13:44:29.411Z,51.67
2022-12-20T13:46:14.608Z,50.72
2022-12-20T13:47:53.757Z,46.10
2022-12-20T13:49:30.686Z,46.72
2022-12-20T13:51:03.682Z,46.63
2022-12-20T13:52:42.885Z,47.13
2022-12-20T13:54:26.647Z,46.60
2022-12-20T13:56:00.047Z,46.13
2022-12-20T13:57:40.119Z,47.58
2022-12-20T13:59:17.471Z,44.90
2022-12-20T14:00:51.611Z,43.50
2022-12-20T14:02:27.624Z,38.65
2022-12-20T14:04:04.712Z,40.70
2022-12-20T14:05:39.772Z,45.65
2022-12-20T14:07:17.103Z,44.78
2022-12-20T14:08:51.707Z,40.97
2022-12-20T14:10:27.524Z,42.95
2022-12-20T14:12:06.038Z,42.10
2022-12-20T14:13:38.754Z,46.78
2022-12-20T14:15:23.122Z,42.60
2022-12-20T14:16:55.923Z,46.15
2022-12-20T14:18:28.683Z,48.90
2022-12-20T14:20:23.367Z,43.55
2022-12-20T14:21:57.466Z,45.38
2022-12-20T14:23:37.115Z,47.90
2022-12-20T14:25:13.146Z,51.72
2022-12-20T14:26:49.611Z,57.38
2022-12-20T14:28:31.306Z,53.95
2022-12-20T14:30:05.652Z,53.10
2022-12-20T14:31:41.778Z,56.92
2022-12-20T14:33:22.542Z,55.65
2022-12-20T14:34:55.381Z,55.85
2022-12-20T14:36:28.095Z,56.00
2022-12-20T14:38:04.126Z,67.00
2022-12-20T14:39:36.869Z,91.57
2022-12-20T14:41:30.300Z,77.45
2022-12-20T14:43:15.849Z,62.50
2022-12-20T14:44:48.633Z,68.65
2022-12-20T14:46:22.498Z,73.72
2022-12-20T14:48:02.913Z,68.82
2022-12-20T14:49:38.503Z,67.80
2022-12-20T14:51:11.636Z,69.40
2022-12-20T14:52:44.969Z,68.22
2022-12-20T14:54:56.834Z,65.15
2022-12-20T14:56:16.625Z,65.43
2022-12-20T14:57:51.957Z,62.50
2022-12-20T14:59:28.755Z,60.72
2022-12-20T15:01:03.678Z,59.50
2022-12-20T15:02:40.755Z,58.30
2022-12-20T15:04:25.851Z,60.90
2022-12-20T15:06:00.196Z,63.85
2022-12-20T15:07:33.133Z,61.58
2022-12-20T15:09:06.180Z,59.15
2022-12-20T15:10:42.662Z,66.55
2022-12-20T15:12:15.368Z,76.00
2022-12-20T15:13:49.863Z,64.32
2022-12-20T15:15:29.461Z,62.20
2022-12-20T15:17:03.635Z,65.40
2022-12-20T15:18:36.375Z,59.40
2022-12-20T15:20:12.973Z,62.38
2022-12-20T15:21:46.524Z,75.50
2022-12-20T15:23:21.508Z,67.47
2022-12-20T15:24:54.247Z,62.00
2022-12-20T15:26:29.257Z,63.00
2022-12-20T15:28:01.975Z,60.35
2022-12-20T15:29:35.713Z,61.53
2022-12-20T15:31:11.463Z,60.80
2022-12-20T15:32:55.105Z,59.67
2022-12-20T15:34:31.303Z,57.65
2022-12-20T15:36:04.320Z,60.00
2022-12-20T15:37:37.090Z,62.70
2022-12-20T15:39:14.539Z,61.53
2022-12-20T15:40:49.624Z,108.95
2022-12-20T15:42:25.276Z,97.32
2022-12-20T15:43:59.757Z,78.90
2022-12-20T15:45:33.683Z,78.07
2022-12-20T15:47:06.546Z,84.00
2022-12-20T15:48:39.315Z,75.32
2022-12-20T15:50:13.581Z,80.40
2022-12-20T15:51:48.413Z,74.60
2022-12-20T15:53:24.187Z,67.03
2022-12-20T15:54:56.931Z,67.05
2022-12-20T15:56:30.095Z,63.53
2022-12-20T15:58:04.163Z,68.38
2022-12-20T16:01:40.378Z,66.65
2022-12-20T16:03:20.286Z,70.13
2022-12-20T16:04:53.290Z,70.55
2022-12-20T16:06:26.048Z,67.20
2022-12-20T16:07:58.943Z,66.72
2022-12-20T16:09:34.457Z,72.30
2022-12-20T16:11:07.866Z,70.80
2022-12-20T16:12:41.275Z,70.38
2022-12-20T16:14:18.331Z,69.10
2022-12-20T16:15:51.565Z,69.15
2022-12-20T16:17:25.006Z,71.90
2022-12-20T16:18:58.174Z,70.43
2022-12-20T16:20:31.482Z,73.05
2022-12-20T16:22:04.218Z,67.28
2022-12-20T16:23:36.950Z,64.30
2022-12-20T16:25:23.555Z,63.88
2022-12-20T16:26:56.287Z,63.88
2022-12-20T16:28:28.961Z,57.15
2022-12-20T16:30:03.019Z,62.55
2022-12-20T16:31:37.260Z,57.08
2022-12-20T16:33:20.507Z,59.20
2022-12-20T16:34:53.592Z,58.47
2022-12-20T16:36:26.783Z,58.83
2022-12-20T16:38:01.189Z,61.30
2022-12-20T16:39:33.934Z,56.05
2022-12-20T16:41:13.760Z,47.47
2022-12-20T16:42:47.176Z,51.45
2022-12-20T16:44:19.970Z,50.45
2022-12-20T16:45:53.992Z,52.47
2022-12-20T16:47:27.009Z,48.42
2022-12-20T16:49:01.213Z,44.83
2022-12-20T16:50:33.903Z,43.22
2022-12-20T16:52:07.347Z,45.67
2022-12-20T16:54:02.713Z,44.95
2022-12-20T16:55:39.464Z,57.95
2022-12-20T16:57:12.756Z,65.93
2022-12-20T16:59:18.069Z,67.20
2022-12-20T17:00:38.198Z,69.45
2022-12-20T17:02:22.762Z,93.22
2022-12-20T17:03:55.839Z,105.57
2022-12-20T17:05:31.344Z,107.47
2022-12-20T17:07:04.060Z,97.10
2022-12-20T17:08:51.924Z,103.60
2022-12-20T17:10:25.937Z,95.68
2022-12-20T17:11:59.993Z,83.90
2022-12-20T17:13:33.173Z,87.28
2022-12-20T17:15:06.854Z,36.20
2022-12-20T17:16:39.671Z,35.05
2022-12-20T17:18:14.434Z,31.25
2022-12-20T17:19:47.425Z,30.60
2022-12-20T17:21:23.887Z,30.63
2022-12-20T17:22:57.111Z,36.53
2022-12-20T17:24:30.085Z,32.05
2022-12-20T17:26:02.798Z,30.38
2022-12-20T17:27:35.523Z,29.60
2022-12-20T17:29:08.269Z,29.25
2022-12-20T17:30:41.070Z,51.30
2022-12-20T17:32:20.763Z,59.50
2022-12-20T17:33:55.120Z,68.90
2022-12-20T17:35:30.385Z,60.25
2022-12-20T17:37:03.530Z,62.00
2022-12-20T17:38:36.226Z,63.05
2022-12-20T17:40:13.411Z,62.45
2022-12-20T17:41:46.987Z,55.78
2022-12-20T17:43:19.731Z,55.42
2022-12-20T17:44:52.409Z,56.15
2022-12-20T17:46:25.951Z,53.03
2022-12-20T17:47:59.151Z,52.40
2022-12-20T17:49:33.223Z,47.20
2022-12-20T17:51:15.377Z,51.60
2022-12-20T17:52:48.909Z,46.80
2022-12-20T17:54:23.743Z,39.17
2022-12-20T17:55:56.449Z,43.88
2022-12-20T17:57:29.161Z,43.72
2022-12-20T17:59:04.694Z,56.65
2022-12-20T18:00:39.525Z,60.03
2022-12-20T18:02:21.373Z,39.70
2022-12-20T18:04:04.885Z,42.67
2022-12-20T18:05:41.227Z,41.53
2022-12-20T18:07:13.920Z,42.53
2022-12-20T18:08:50.241Z,40.42
2022-12-20T18:10:23.981Z,41.83
2022-12-20T18:11:56.664Z,37.65
2022-12-20T18:13:29.374Z,40.72
2022-12-20T18:15:02.265Z,46.25
2022-12-20T18:16:35.778Z,61.45
2022-12-20T18:18:08.550Z,66.32
2022-12-20T18:19:41.510Z,66.22
2022-12-20T18:21:19.141Z,69.95
2022-12-20T18:22:51.930Z,63.72
2022-12-20T18:24:24.659Z,67.57
2022-12-20T18:26:06.499Z,62.47
2022-12-20T18:27:40.915Z,65.10
2022-12-20T18:29:14.495Z,61.33
2022-12-20T18:30:47.262Z,63.95
2022-12-20T18:32:19.995Z,64.38
2022-12-20T18:33:57.724Z,64.90
2022-12-20T18:35:31.350Z,64.70
2022-12-20T18:37:05.802Z,64.95
2022-12-20T18:38:40.578Z,67.25
2022-12-20T18:40:13.381Z,65.95
2022-12-20T18:41:47.564Z,74.65
2022-12-20T18:43:20.386Z,69.38
2022-12-20T18:44:53.664Z,67.00
2022-12-20T18:46:26.515Z,68.18
2022-12-20T18:47:59.730Z,66.60
2022-12-20T18:49:33.070Z,63.63
2022-12-20T18:51:06.374Z,67.55
2022-12-20T18:52:42.353Z,63.15
2022-12-20T18:54:17.031Z,94.05
2022-12-20T18:55:49.758Z,76.28
2022-12-20T18:57:22.475Z,67.78
2022-12-20T18:58:55.995Z,67.13
2022-12-20T19:00:28.717Z,65.30
2022-12-20T19:02:01.851Z,71.18
2022-12-20T19:03:34.973Z,70.65
2022-12-20T19:05:08.737Z,62.58
2022-12-20T19:06:41.738Z,63.50
2022-12-20T19:08:15.808Z,64.10
2022-12-20T19:09:48.574Z,71.97
2022-12-20T19:11:23.328Z,86.72
2022-12-20T19:13:00.837Z,76.60
2022-12-20T19:14:36.600Z,79.80
2022-12-20T19:16:12.987Z,73.28
2022-12-20T19:17:45.886Z,71.68
2022-12-20T19:19:18.736Z,75.50
2022-12-20T19:20:51.497Z,74.65
2022-12-20T19:22:24.271Z,73.80
2022-12-20T19:24:00.441Z,73.63
2022-12-20T19:25:35.408Z,74.80
2022-12-20T19:27:09.521Z,68.75
2022-12-20T19:28:43.254Z,70.05
2022-12-20T19:30:16.348Z,70.22
2022-12-20T19:31:49.389Z,66.57
2022-12-20T19:33:23.480Z,66.65
2022-12-20T19:34:56.220Z,67.00
2022-12-20T19:36:31.233Z,64.72
2022-12-20T19:38:04.117Z,65.50
2022-12-20T19:39:38.419Z,63.08
2022-12-20T19:41:11.524Z,67.78
2022-12-20T19:42:44.822Z,64.43
2022-12-20T19:44:17.790Z,61.72
2022-12-20T19:45:50.599Z,76.72
2022-12-20T19:47:26.204Z,65.47
2022-12-20T19:49:00.264Z,68.30
2022-12-20T19:50:33.032Z,67.88
2022-12-20T19:52:06.815Z,68.53
2022-12-20T19:53:40.623Z,66.00
2022-12-20T19:55:15.066Z,63.10
2022-12-20T19:56:47.836Z,66.05
2022-12-20T19:58:19.646Z,69.63
2022-12-20T19:59:56.009Z,72.05
2022-12-20T20:01:29.973Z,67.65
2022-12-20T20:03:03.037Z,70.97
2022-12-20T20:04:36.041Z,71.30
2022-12-20T20:06:09.257Z,65.00
2022-12-20T20:07:42.569Z,67.50
2022-12-20T20:09:15.369Z,71.28
2022-12-20T20:10:53.438Z,65.93
2022-12-20T20:12:26.445Z,65.38
2022-12-20T20:14:00.426Z,68.97
2022-12-20T20:15:33.181Z,64.70
2022-12-20T20:17:05.993Z,63.63
2022-12-20T20:18:40.040Z,61.33
2022-12-20T20:20:13.105Z,59.97
2022-12-20T20:21:46.225Z,65.40
2022-12-20T20:23:19.206Z,62.58
2022-12-20T20:24:51.922Z,62.92
2022-12-20T20:26:29.152Z,63.58
2022-12-20T20:28:02.187Z,66.90
2022-12-20T20:29:34.933Z,66.28
2022-12-20T20:31:10.630Z,65.43
2022-12-20T20:32:43.491Z,62.65
2022-12-20T20:34:16.423Z,61.70
2022-12-20T20:35:55.524Z,72.03
2022-12-20T20:37:28.236Z,63.75
2022-12-20T20:39:00.910Z,62.10
2022-12-20T20:40:34.227Z,67.45
2022-12-20T20:42:08.333Z,65.28
2022-12-20T20:43:41.545Z,84.45
2022-12-20T20:45:14.272Z,86.55